createdAt,value
2022-08-14T00:00:14.654Z,3.70
2022-08-14T00:03:04.284Z,4.20
2022-08-14T00:05:35.743Z,3.80
2022-08-14T00:08:05.548Z,3.40
2022-08-14T00:10:51.586Z,3.20
2022-08-14T00:13:29.212Z,3.50
2022-08-14T00:16:02.216Z,3.30
2022-08-14T00:19:06.456Z,2.90
2022-08-14T00:21:28.397Z,2.70
2022-08-14T00:24:02.530Z,3.40
2022-08-14T00:26:33.069Z,3.20
2022-08-14T00:29:04.558Z,3.40
2022-08-14T00:31:44.434Z,3.10
2022-08-14T00:34:36.141Z,4.10
2022-08-14T00:37:08.095Z,5.10
2022-08-14T00:39:42.592Z,3.30
2022-08-14T00:42:52.357Z,4.10
2022-08-14T00:45:04.130Z,3.40
2022-08-14T00:47:43.022Z,3.60
2022-08-14T00:50:21.939Z,2.80
2022-08-14T00:52:53.411Z,3.10
2022-08-14T00:55:24.363Z,3.90
2022-08-14T00:58:13.362Z,3.30
2022-08-14T01:00:51.110Z,3.70
2022-08-14T01:03:23.400Z,3.50
2022-08-14T01:05:56.425Z,3.30
2022-08-14T01:08:51.979Z,3.70
2022-08-14T01:11:24.318Z,3.90
2022-08-14T01:14:01.439Z,4.50
2022-08-14T01:16:34.991Z,4.30
2022-08-14T01:19:27.476Z,3.80
2022-08-14T01:21:57.851Z,3.40
2022-08-14T01:24:36.063Z,3.60
2022-08-14T01:27:07.061Z,4.00
2022-08-14T01:29:58.698Z,3.40
2022-08-14T01:32:37.620Z,3.30
2022-08-14T01:36:02.683Z,3.80
2022-08-14T01:38:06.018Z,3.70
2022-08-14T01:40:41.877Z,3.20
2022-08-14T01:43:18.565Z,4.40
2022-08-14T01:45:57.443Z,4.70
2022-08-14T01:48:44.777Z,4.60
2022-08-14T01:51:19.191Z,4.00
2022-08-14T01:54:01.603Z,3.70
2022-08-14T01:56:41.552Z,4.40
2022-08-14T01:59:21.918Z,3.60
2022-08-14T02:01:58.839Z,4.00
2022-08-14T02:04:54.840Z,3.90
2022-08-14T02:07:44.519Z,3.50
2022-08-14T02:10:26.269Z,3.80
2022-08-14T02:13:08.488Z,3.60
2022-08-14T02:15:41.454Z,4.00
2022-08-14T02:18:15.163Z,3.70
2022-08-14T02:20:51.264Z,3.30
2022-08-14T02:23:29.024Z,3.70
2022-08-14T02:26:24.847Z,4.00
2022-08-14T02:31:42.149Z,3.40
2022-08-14T02:34:21.935Z,2.80
2022-08-14T02:37:03.638Z,3.40
2022-08-14T02:39:45.221Z,3.70
2022-08-14T02:42:23.631Z,3.40
2022-08-14T02:45:10.627Z,3.10
2022-08-14T02:47:47.488Z,3.70
2022-08-14T02:50:22.005Z,3.40
2022-08-14T02:53:03.324Z,3.50
2022-08-14T02:55:33.970Z,3.70
2022-08-14T02:58:06.157Z,3.50
2022-08-14T03:00:39.904Z,4.00
2022-08-14T03:03:12.206Z,3.80
2022-08-14T03:05:47.661Z,4.00
2022-08-14T03:08:21.520Z,3.20
2022-08-14T03:10:52.111Z,3.30
2022-08-14T03:13:24.703Z,3.40
2022-08-14T03:15:58.223Z,4.20
2022-08-14T03:18:32.814Z,3.40
2022-08-14T03:21:13.676Z,3.70
2022-08-14T03:23:45.781Z,4.40
2022-08-14T03:26:29.933Z,4.10
2022-08-14T03:29:01.565Z,3.60
2022-08-14T03:31:32.874Z,4.00
2022-08-14T03:34:05.255Z,3.90
2022-08-14T03:37:39.004Z,4.20
2022-08-14T03:39:31.906Z,3.70
2022-08-14T03:42:02.334Z,3.80
2022-08-14T03:45:19.644Z,3.90
2022-08-14T03:47:46.023Z,3.70
2022-08-14T03:50:27.560Z,3.50
2022-08-14T03:53:05.865Z,3.60
2022-08-14T03:55:38.793Z,4.00
2022-08-14T03:58:08.616Z,3.60
2022-08-14T04:00:42.997Z,3.70
2022-08-14T04:03:23.549Z,3.70
2022-08-14T04:05:57.429Z,4.20
2022-08-14T04:08:31.674Z,4.10
2022-08-14T04:11:07.834Z,3.70
2022-08-14T04:13:42.239Z,4.20
2022-08-14T04:16:19.162Z,3.80
2022-08-14T04:18:53.158Z,3.80
2022-08-14T04:21:26.191Z,3.30
2022-08-14T04:24:01.683Z,3.40
2022-08-14T04:26:42.303Z,4.00
2022-08-14T04:29:16.242Z,3.70
2022-08-14T04:32:57.772Z,3.40
2022-08-14T04:34:42.281Z,3.40
2022-08-14T04:37:40.257Z,4.00
2022-08-14T04:40:29.402Z,3.70
2022-08-14T04:43:17.666Z,3.70
2022-08-14T04:45:51.464Z,3.20
2022-08-14T04:48:38.854Z,3.70
2022-08-14T04:51:13.562Z,3.70
2022-08-14T04:53:46.812Z,3.00
2022-08-14T04:56:31.087Z,3.30
2022-08-14T04:59:10.679Z,3.80
2022-08-14T05:01:45.318Z,3.10
2022-08-14T05:04:20.914Z,3.10
2022-08-14T05:06:53.319Z,3.90
2022-08-14T05:09:29.214Z,3.10
2022-08-14T05:13:11.765Z,3.40
2022-08-14T05:14:55.786Z,3.20
2022-08-14T05:17:32.024Z,3.00
2022-08-14T05:21:54.402Z,3.50
2022-08-14T05:23:11.130Z,4.10
2022-08-14T05:25:41.700Z,3.50
2022-08-14T05:28:25.688Z,3.60
2022-08-14T05:31:08.241Z,3.30
2022-08-14T05:33:42.872Z,3.40
2022-08-14T05:36:27.161Z,3.40
2022-08-14T05:38:58.832Z,3.90
2022-08-14T05:41:52.441Z,3.60
2022-08-14T05:44:18.798Z,3.60
2022-08-14T05:46:49.613Z,3.20
2022-08-14T05:49:20.046Z,3.00
2022-08-14T05:51:52.009Z,3.70
2022-08-14T05:54:27.202Z,3.50
2022-08-14T05:56:58.513Z,3.40
2022-08-14T05:59:36.676Z,3.30
2022-08-14T06:02:11.789Z,3.10
2022-08-14T06:04:49.529Z,3.50
2022-08-14T06:07:18.730Z,3.50
2022-08-14T06:09:51.094Z,4.00
2022-08-14T06:12:31.590Z,3.60
2022-08-14T06:15:14.130Z,3.50
2022-08-14T06:17:46.115Z,2.90
2022-08-14T06:20:22.087Z,3.90
2022-08-14T06:22:53.001Z,3.60
2022-08-14T06:25:24.897Z,3.40
2022-08-14T06:27:55.690Z,4.20
2022-08-14T06:30:46.416Z,3.80
2022-08-14T06:33:18.780Z,3.80
2022-08-14T06:35:50.970Z,3.60
2022-08-14T06:38:24.010Z,3.40
2022-08-14T06:40:57.050Z,3.40
2022-08-14T06:46:03.331Z,3.70
2022-08-14T06:48:37.157Z,3.60
2022-08-14T06:51:12.027Z,3.50
2022-08-14T06:53:41.341Z,5.20
2022-08-14T06:56:11.907Z,4.00
2022-08-14T06:58:42.887Z,3.80
2022-08-14T07:01:31.547Z,7.00
2022-08-14T07:04:23.721Z,7.40
2022-08-14T07:06:59.089Z,3.80
2022-08-14T07:09:44.372Z,3.80
2022-08-14T07:12:35.052Z,4.30
2022-08-14T07:15:11.701Z,3.80
2022-08-14T07:17:54.097Z,3.90
2022-08-14T07:20:31.341Z,4.30
2022-08-14T07:23:08.115Z,4.40
2022-08-14T07:25:42.262Z,4.50
2022-08-14T07:28:22.164Z,3.60
2022-08-14T07:31:05.232Z,4.30
2022-08-14T07:33:45.499Z,4.50
2022-08-14T07:36:27.545Z,4.70
2022-08-14T07:39:03.000Z,4.30
2022-08-14T07:41:42.658Z,4.10
2022-08-14T07:44:28.850Z,4.10
2022-08-14T07:47:05.202Z,5.60
2022-08-14T07:49:43.527Z,4.40
2022-08-14T07:52:14.167Z,5.10
2022-08-14T07:54:53.795Z,6.20
2022-08-14T07:57:25.162Z,4.60
2022-08-14T07:59:55.783Z,4.90
2022-08-14T08:02:29.549Z,4.90
2022-08-14T08:05:03.558Z,4.60
2022-08-14T08:07:40.811Z,4.80
2022-08-14T08:11:02.102Z,5.00
2022-08-14T08:13:29.346Z,4.60
2022-08-14T08:15:59.173Z,5.00
2022-08-14T08:18:38.214Z,4.50
2022-08-14T08:21:15.853Z,4.60
2022-08-14T08:23:55.239Z,4.20
2022-08-14T08:26:43.579Z,4.70
2022-08-14T08:29:30.204Z,4.20
2022-08-14T08:32:14.709Z,4.70
2022-08-14T08:34:51.942Z,4.40
2022-08-14T08:37:25.356Z,4.40
2022-08-14T08:40:06.509Z,5.20
2022-08-14T08:42:53.136Z,7.00
2022-08-14T08:45:27.775Z,5.70
2022-08-14T08:48:03.602Z,5.50
2022-08-14T08:50:53.282Z,5.20
2022-08-14T08:53:47.045Z,5.50
2022-08-14T08:57:21.630Z,6.30
2022-08-14T09:03:27.594Z,14.30
2022-08-14T09:07:00.140Z,8.90
2022-08-14T09:10:34.055Z,13.30
2022-08-14T09:13:16.398Z,7.70
2022-08-14T09:16:18.424Z,6.50
2022-08-14T09:19:04.515Z,5.70
2022-08-14T09:21:46.798Z,5.90
2022-08-14T09:24:26.913Z,7.30
2022-08-14T09:27:41.374Z,6.10
2022-08-14T09:30:33.541Z,6.10
2022-08-14T09:33:25.472Z,6.10
2022-08-14T09:36:39.786Z,6.20
2022-08-14T09:40:25.814Z,7.40
2022-08-14T09:43:13.831Z,5.90
2022-08-14T09:46:04.329Z,5.40
2022-08-14T09:48:39.427Z,5.90
2022-08-14T09:51:25.508Z,5.60
2022-08-14T09:54:22.944Z,5.20
2022-08-14T09:56:57.420Z,5.70
2022-08-14T09:59:39.569Z,5.80
2022-08-14T10:02:31.781Z,6.10
2022-08-14T10:05:13.589Z,5.80
2022-08-14T10:07:53.843Z,7.80
2022-08-14T10:10:38.923Z,6.40
2022-08-14T10:13:43.230Z,5.70
2022-08-14T10:16:30.417Z,5.50
2022-08-14T10:19:28.383Z,5.40
2022-08-14T10:23:13.030Z,5.90
2022-08-14T10:24:55.742Z,6.40
2022-08-14T10:27:29.585Z,5.40
2022-08-14T10:30:02.455Z,5.90
2022-08-14T10:32:49.629Z,5.70
2022-08-14T10:35:27.715Z,6.10
2022-08-14T10:38:02.346Z,6.40
2022-08-14T10:40:44.742Z,8.70
2022-08-14T10:43:31.944Z,12.20
2022-08-14T10:47:38.041Z,10.90
2022-08-14T10:49:04.912Z,6.30
2022-08-14T10:51:39.722Z,9.30
2022-08-14T10:54:17.018Z,8.80
2022-08-14T10:57:38.471Z,7.60
2022-08-14T11:00:20.739Z,8.40
2022-08-14T11:03:19.704Z,8.20
2022-08-14T11:05:57.187Z,6.90
2022-08-14T11:08:34.781Z,7.00
2022-08-14T11:11:07.469Z,6.80
2022-08-14T11:13:44.524Z,7.60
2022-08-14T11:16:16.585Z,7.80
2022-08-14T11:18:55.956Z,8.00
2022-08-14T11:21:34.294Z,7.40
2022-08-14T11:24:55.159Z,7.50
2022-08-14T11:27:04.077Z,6.50
2022-08-14T11:30:00.380Z,7.40
2022-08-14T11:32:51.354Z,6.60
2022-08-14T11:35:37.003Z,7.30
2022-08-14T11:38:21.825Z,8.00
2022-08-14T11:40:52.493Z,10.30
2022-08-14T11:43:29.139Z,7.20
2022-08-14T11:46:03.650Z,7.40
2022-08-14T11:49:01.628Z,7.40
2022-08-14T11:51:52.885Z,9.40
2022-08-14T11:54:34.986Z,7.20
2022-08-14T11:57:06.413Z,7.90
2022-08-14T11:59:38.530Z,8.20
2022-08-14T12:03:01.630Z,8.10
2022-08-14T12:05:10.891Z,8.20
2022-08-14T12:07:50.416Z,8.70
2022-08-14T12:10:41.052Z,7.70
2022-08-14T12:13:22.587Z,7.90
2022-08-14T12:16:06.507Z,7.70
2022-08-14T12:18:45.855Z,8.10
2022-08-14T12:21:25.581Z,8.50
2022-08-14T12:26:40.729Z,9.10
2022-08-14T12:29:16.726Z,8.70
2022-08-14T12:31:47.184Z,8.30
2022-08-14T12:34:20.518Z,7.80
2022-08-14T12:37:09.311Z,8.60
2022-08-14T12:39:40.278Z,8.20
2022-08-14T12:42:34.041Z,8.60
2022-08-14T12:45:04.905Z,8.00
2022-08-14T12:47:38.828Z,8.30
2022-08-14T12:50:21.733Z,8.00
2022-08-14T12:53:14.683Z,8.50
2022-08-14T12:56:22.545Z,7.40
2022-08-14T12:58:59.145Z,9.00
2022-08-14T13:01:59.324Z,11.00
2022-08-14T13:04:52.339Z,8.60
2022-08-14T13:07:26.829Z,7.70
2022-08-14T13:10:46.272Z,9.30
2022-08-14T13:13:15.673Z,7.70
2022-08-14T13:15:57.286Z,11.70
2022-08-14T13:18:31.337Z,8.20
2022-08-14T13:21:03.020Z,9.50
2022-08-14T13:23:37.370Z,11.70
2022-08-14T13:26:09.310Z,9.90
2022-08-14T13:29:02.072Z,13.00
2022-08-14T13:31:36.446Z,10.30
2022-08-14T13:34:06.662Z,8.10
2022-08-14T13:36:51.557Z,8.40
2022-08-14T13:39:30.246Z,8.80
2022-08-14T13:42:13.864Z,8.90
2022-08-14T13:44:45.611Z,7.90
2022-08-14T13:47:21.017Z,9.90
2022-08-14T13:49:57.539Z,10.00
2022-08-14T13:52:51.423Z,8.20
2022-08-14T13:55:31.566Z,7.90
2022-08-14T13:58:07.819Z,8.40
2022-08-14T14:00:59.942Z,9.30
2022-08-14T14:03:31.949Z,8.80
2022-08-14T14:06:03.878Z,8.30
2022-08-14T14:08:47.742Z,13.40
2022-08-14T14:11:25.282Z,9.90
2022-08-14T14:14:06.102Z,8.60
2022-08-14T14:16:47.514Z,8.40
2022-08-14T14:19:20.922Z,9.00
2022-08-14T14:21:55.797Z,10.00
2022-08-14T14:24:26.325Z,11.60
2022-08-14T14:27:30.080Z,9.20
2022-08-14T14:29:59.569Z,9.60
2022-08-14T14:32:32.334Z,14.60
2022-08-14T14:35:03.993Z,10.10
2022-08-14T14:37:37.902Z,10.80
2022-08-14T14:40:54.371Z,9.90
2022-08-14T14:43:11.867Z,11.10
2022-08-14T14:45:46.814Z,10.10
2022-08-14T14:48:28.406Z,11.10
2022-08-14T14:51:01.742Z,10.20
2022-08-14T14:53:39.225Z,7.00
2022-08-14T14:56:49.303Z,5.40
2022-08-14T14:59:01.562Z,5.20
2022-08-14T15:01:33.145Z,3.90
2022-08-14T15:04:08.071Z,4.30
2022-08-14T15:06:53.030Z,4.00
2022-08-14T15:09:23.856Z,5.80
2022-08-14T15:11:53.177Z,3.80
2022-08-14T15:14:54.677Z,3.50
2022-08-14T15:17:12.351Z,5.30
2022-08-14T15:19:42.576Z,4.00
2022-08-14T15:22:29.702Z,4.20
2022-08-14T15:25:01.134Z,3.70
2022-08-14T15:27:33.384Z,4.30
2022-08-14T15:30:06.894Z,3.60
2022-08-14T15:32:37.224Z,3.80
2022-08-14T15:35:08.512Z,5.50
2022-08-14T15:40:16.215Z,3.60
2022-08-14T15:42:53.174Z,5.90
2022-08-14T15:45:24.312Z,4.60
2022-08-14T15:47:53.324Z,4.00
2022-08-14T15:50:29.555Z,4.20
2022-08-14T15:53:00.030Z,4.00
2022-08-14T15:55:31.364Z,5.20
2022-08-14T15:58:05.829Z,5.00
2022-08-14T16:00:55.984Z,10.10
2022-08-14T16:03:35.163Z,6.20
2022-08-14T16:06:15.591Z,5.40
2022-08-14T16:08:58.798Z,5.40
2022-08-14T16:11:32.693Z,4.00
2022-08-14T16:14:06.666Z,6.00
2022-08-14T16:16:51.431Z,5.30
2022-08-14T16:19:28.068Z,5.40
2022-08-14T16:22:57.367Z,4.90
2022-08-14T16:25:00.562Z,4.20
2022-08-14T16:27:40.991Z,4.90
2022-08-14T16:30:20.664Z,4.80
2022-08-14T16:32:59.344Z,5.10
2022-08-14T16:35:59.390Z,5.90
2022-08-14T16:38:46.387Z,6.00
2022-08-14T16:41:23.857Z,7.20
2022-08-14T16:44:02.365Z,5.30
2022-08-14T16:46:43.014Z,6.20
2022-08-14T16:49:18.794Z,5.90
2022-08-14T16:51:52.977Z,6.20
2022-08-14T16:54:35.085Z,6.20
2022-08-14T16:57:27.623Z,5.30
2022-08-14T17:00:07.241Z,6.50
2022-08-14T17:03:00.815Z,5.60
2022-08-14T17:05:43.299Z,13.40
2022-08-14T17:08:32.131Z,6.60
2022-08-14T17:11:10.760Z,6.50
2022-08-14T17:13:59.065Z,43.10
2022-08-14T17:16:38.764Z,8.30
2022-08-14T17:19:16.724Z,12.30
2022-08-14T17:21:51.454Z,9.70
2022-08-14T17:24:56.698Z,9.60
2022-08-14T17:27:18.172Z,8.70
2022-08-14T17:29:57.585Z,7.50
2022-08-14T17:32:55.485Z,8.20
2022-08-14T17:35:57.662Z,8.80
2022-08-14T17:38:39.535Z,7.00
2022-08-14T17:41:32.947Z,6.30
2022-08-14T17:44:33.851Z,6.40
2022-08-14T17:47:11.569Z,7.10
2022-08-14T17:49:51.792Z,8.80
2022-08-14T17:52:33.960Z,8.40
2022-08-14T17:55:12.751Z,8.50
2022-08-14T17:58:16.561Z,7.40
2022-08-14T18:01:04.692Z,7.10
2022-08-14T18:03:50.337Z,11.50
2022-08-14T18:06:39.431Z,7.60
2022-08-14T18:09:25.936Z,6.90
2022-08-14T18:12:03.882Z,8.10
2022-08-14T18:14:48.746Z,9.60
2022-08-14T18:17:23.047Z,9.80
2022-08-14T18:19:56.502Z,9.80
2022-08-14T18:22:32.110Z,8.50
2022-08-14T18:25:04.729Z,7.60
2022-08-14T18:27:51.600Z,8.00
2022-08-14T18:30:33.553Z,8.00
2022-08-14T18:33:22.882Z,8.10
2022-08-14T18:35:58.498Z,8.90
2022-08-14T18:38:46.215Z,9.20
2022-08-14T18:41:37.033Z,13.60
2022-08-14T18:44:10.634Z,14.50
2022-08-14T18:47:10.241Z,11.20
2022-08-14T18:49:55.659Z,11.50
2022-08-14T18:52:37.662Z,10.00
2022-08-14T18:55:20.953Z,8.50
2022-08-14T18:58:30.437Z,8.40
2022-08-14T19:01:06.217Z,9.00
2022-08-14T19:03:37.253Z,10.20
2022-08-14T19:06:10.753Z,9.10
2022-08-14T19:08:51.634Z,8.30
2022-08-14T19:11:33.237Z,7.80
2022-08-14T19:14:06.753Z,8.30
2022-08-14T19:16:42.787Z,8.70
2022-08-14T19:19:15.352Z,8.90
2022-08-14T19:22:00.009Z,8.20
2022-08-14T19:24:56.975Z,9.80
2022-08-14T19:27:37.720Z,9.80
2022-08-14T19:30:19.728Z,9.20
2022-08-14T19:32:57.046Z,9.00
2022-08-14T19:36:29.192Z,9.60
2022-08-14T19:39:04.331Z,9.30
2022-08-14T19:41:36.966Z,8.60
2022-08-14T19:44:12.582Z,8.60
2022-08-14T19:47:02.841Z,8.80
2022-08-14T19:50:24.593Z,9.30
2022-08-14T19:52:37.240Z,12.10
2022-08-14T19:55:17.581Z,10.40
2022-08-14T19:57:57.968Z,9.60
2022-08-14T20:00:31.079Z,10.20
2022-08-14T20:03:11.751Z,10.70
2022-08-14T20:05:45.891Z,11.60
2022-08-14T20:09:05.019Z,10.40
2022-08-14T20:12:00.406Z,11.20
2022-08-14T20:14:29.358Z,11.50
2022-08-14T20:17:05.979Z,13.40
2022-08-14T20:19:41.883Z,9.80
2022-08-14T20:22:35.049Z,10.70
2022-08-14T20:25:19.094Z,10.60
2022-08-14T20:27:59.671Z,11.10
2022-08-14T20:30:33.402Z,10.70
2022-08-14T20:33:10.592Z,11.90
2022-08-14T20:35:46.954Z,10.50
2022-08-14T20:38:30.759Z,10.50
2022-08-14T20:41:07.585Z,11.90
2022-08-14T20:44:00.936Z,10.40
2022-08-14T20:46:38.450Z,10.20
2022-08-14T20:49:20.246Z,9.80
2022-08-14T20:52:05.087Z,12.00
2022-08-14T20:54:53.357Z,10.80
2022-08-14T20:57:44.104Z,9.90
2022-08-14T21:00:56.486Z,10.80
2022-08-14T21:03:56.445Z,9.60
2022-08-14T21:07:23.361Z,9.60
2022-08-14T21:10:05.327Z,12.60
2022-08-14T21:12:35.272Z,10.70
2022-08-14T21:15:11.331Z,10.80
2022-08-14T21:17:46.326Z,10.80
2022-08-14T21:20:26.127Z,10.20
2022-08-14T21:23:00.516Z,12.10
2022-08-14T21:25:32.256Z,12.60
2022-08-14T21:28:09.056Z,12.30
2022-08-14T21:31:35.662Z,10.80
2022-08-14T21:34:31.553Z,9.10
2022-08-14T21:36:57.638Z,10.70
2022-08-14T21:39:32.159Z,11.00
2022-08-14T21:42:04.644Z,9.20
2022-08-14T21:44:42.601Z,10.30
2022-08-14T21:47:15.984Z,10.10
2022-08-14T21:49:48.363Z,9.70
2022-08-14T21:52:52.167Z,9.70
2022-08-14T21:55:23.272Z,9.30
2022-08-14T21:58:38.372Z,9.10
2022-08-14T22:00:46.887Z,10.00
2022-08-14T22:03:24.495Z,10.00
2022-08-14T22:05:57.228Z,10.30
2022-08-14T22:08:29.342Z,10.50
2022-08-14T22:11:00.861Z,10.30
2022-08-14T22:13:33.518Z,10.70
2022-08-14T22:17:01.755Z,10.20
2022-08-14T22:19:13.397Z,10.40
2022-08-14T22:21:46.621Z,10.80
2022-08-14T22:24:25.937Z,10.50
2022-08-14T22:27:08.584Z,10.50
2022-08-14T22:29:38.898Z,10.40
2022-08-14T22:32:11.268Z,9.60
2022-08-14T22:34:44.695Z,9.40
2022-08-14T22:37:17.777Z,9.80
2022-08-14T22:40:45.803Z,8.90
2022-08-14T22:42:39.244Z,9.50
2022-08-14T22:45:36.649Z,9.80
2022-08-14T22:48:12.867Z,8.90
2022-08-14T22:50:48.806Z,9.30
2022-08-14T22:53:18.984Z,9.40
2022-08-14T22:55:52.048Z,9.30
2022-08-14T22:58:31.716Z,8.60
2022-08-14T23:01:11.838Z,9.70
2022-08-14T23:03:45.571Z,10.70
2022-08-14T23:07:04.121Z,11.00
2022-08-14T23:09:36.285Z,9.40
2022-08-14T23:12:27.459Z,8.90
2022-08-14T23:15:04.651Z,10.50
2022-08-14T23:17:40.798Z,10.10
2022-08-14T23:20:18.727Z,10.30
2022-08-14T23:22:54.328Z,10.40
2022-08-14T23:25:58.032Z,8.70
2022-08-14T23:28:32.911Z,9.20
2022-08-14T23:31:15.098Z,9.50
2022-08-14T23:34:11.619Z,9.90
2022-08-14T23:36:53.053Z,10.60
2022-08-14T23:39:32.804Z,10.80
2022-08-14T23:42:08.747Z,10.00
2022-08-14T23:44:40.814Z,11.30
2022-08-14T23:47:26.741Z,11.20
2022-08-14T23:50:34.349Z,11.70
2022-08-14T23:53:07.232Z,11.30
2022-08-14T23:55:42.014Z,10.70
2022-08-14T23:58:29.148Z,10.40
